< < Back
Terminal Aerodrome Forecast


Current Version              Previous Versions:   1  2  3  4  5  6  7  8  9  

Terminal Aerodrome Forecast

145
FTUS42 KTAE 010532
TAFTLH
TAF
KTLH 010532Z 0106/0206 12006KT 6SM BR SCT007 BKN020
      TEMPO 0106/0110 4SM BR BKN002
     FM011200 12003KT 6SM -SHRA SCT015 BKN035
      TEMPO 0115/0118 22015G25KT 3SM TSRA SCT008 BKN025CB
     FM011900 18005KT P6SM SCT025 BKN250=



Latest METAR

990
SAUS80 KWBC 011300 RRN
MTRTLH
METAR KTLH 011253Z COR 00000KT 10SM SCT030CB SCT110 BKN250 27/23 A3004
RMK AO2 CB SW-W MOV NE SLP170 T02670233


USA.gov is the U.S. government's official web portal to all federal, state and local government web resources and services.